Time;durP1;ratioP1;P1;durP2;ratioP2;P2;SDS_P1;SDS_P2;PMS_P1;PMS_P2;Temp;Humidity;BMP_temperature;BMP_pressure;BME280_temperature;BME280_humidity;BME280_pressure;Samples;Min_cycle;Max_cycle;Signal;HPM_P1;HPM_P2
2023/01/15 00:01:54;;;;;;;1.70;1.40;;;;;;;4.59;100.00;95134.44;5048645;28;20532;-74
2023/01/15 00:04:21;;;;;;;3.30;1.97;;;;;;;4.84;100.00;95158.19;5044609;28;20440;-74
2023/01/15 00:06:48;;;;;;;1.70;1.60;;;;;;;4.60;100.00;95122.91;5055093;28;20456;-74
2023/01/15 00:09:15;;;;;;;1.70;1.60;;;;;;;4.79;100.00;95148.63;5068668;28;20973;-75
2023/01/15 00:11:42;;;;;;;2.90;1.40;;;;;;;4.65;100.00;95114.84;5059255;28;20924;-75
2023/01/15 00:14:08;;;;;;;2.77;1.90;;;;;;;4.71;100.00;95110.22;5068402;28;20425;-75
2023/01/15 00:16:35;;;;;;;1.90;1.80;;;;;;;4.83;100.00;95122.59;5038622;28;20496;-75
2023/01/15 00:19:03;;;;;;;2.30;1.73;;;;;;;4.74;100.00;95110.34;5061147;28;20432;-75
2023/01/15 00:21:30;;;;;;;2.33;1.70;;;;;;;4.97;100.00;95129.13;5071800;28;20440;-75
2023/01/15 00:29:27;;;;;;;2.00;1.43;;;;;;;4.94;100.00;95089.69;5071786;28;20488;-74
2023/01/15 00:31:56;;;;;;;3.37;1.50;;;;;;;4.99;100.00;95113.84;5072002;28;20429;-75
2023/01/15 00:34:23;;;;;;;2.07;1.43;;;;;;;4.86;100.00;95082.69;5058380;28;20476;-75
2023/01/15 00:36:50;;;;;;;1.50;1.40;;;;;;;4.93;100.00;95083.69;5041862;28;21038;-75
2023/01/15 00:39:17;;;;;;;1.20;1.10;;;;;;;5.08;100.00;95108.56;5064990;28;20437;-75
2023/01/15 00:41:46;;;;;;;1.97;1.60;;;;;;;5.07;100.00;95104.38;5066441;28;20428;-75
2023/01/15 00:44:14;;;;;;;1.87;1.67;;;;;;;5.00;100.00;95101.53;5058967;28;20935;-75
2023/01/15 00:46:41;;;;;;;1.87;1.43;;;;;;;5.00;100.00;95086.56;5041393;28;20799;-74
2023/01/15 00:49:08;;;;;;;1.53;1.43;;;;;;;5.13;100.00;95094.50;5084458;28;20439;-75
2023/01/15 00:51:35;;;;;;;2.50;1.53;;;;;;;4.93;100.00;95075.84;5054082;28;20432;-75
2023/01/15 00:54:02;;;;;;;5.93;2.00;;;;;;;5.01;100.00;95090.72;5059078;28;20889;-75
2023/01/15 00:56:29;;;;;;;2.13;1.67;;;;;;;4.71;100.00;95047.38;5071140;28;20474;-75
2023/01/15 00:58:56;;;;;;;1.67;1.40;;;;;;;5.08;100.00;95077.13;5071163;28;20443;-75
2023/01/15 01:01:24;;;;;;;2.50;2.30;;;;;;;4.85;100.00;95060.22;5070421;28;20446;-75
2023/01/15 01:03:51;;;;;;;1.90;1.73;;;;;;;4.94;100.00;95066.91;5058890;28;20982;-75
2023/01/15 01:06:21;;;;;;;1.80;1.47;;;;;;;4.94;100.00;95066.13;5084578;28;20982;-75
2023/01/15 01:08:48;;;;;;;2.63;2.43;;;;;;;4.99;100.00;95071.94;5071193;28;20436;-75
2023/01/15 01:11:17;;;;;;;2.20;1.53;;;;;;;4.96;100.00;95064.75;5072110;28;20446;-75
2023/01/15 01:13:44;;;;;;;1.93;1.53;;;;;;;5.00;100.00;95065.63;5070936;28;20483;-75
2023/01/15 01:16:23;;;;;;;1.93;1.70;;;;;;;5.06;100.00;95066.19;5050154;28;21044;-75
2023/01/15 01:18:51;;;;;;;5.40;2.83;;;;;;;4.96;100.00;95053.50;5063442;28;20535;-75
2023/01/15 01:21:18;;;;;;;2.53;1.80;;;;;;;4.92;100.00;95031.66;5070892;28;20816;-75
2023/01/15 01:23:44;;;;;;;2.13;1.80;;;;;;;5.02;100.00;95034.63;5072049;28;20485;-75
2023/01/15 01:26:12;;;;;;;1.50;1.40;;;;;;;5.03;100.00;95043.25;5048114;28;20510;-75
2023/01/15 01:28:40;;;;;;;1.90;1.67;;;;;;;5.16;100.00;95047.44;5063293;28;20444;-75
2023/01/15 01:31:08;;;;;;;1.97;1.77;;;;;;;5.00;100.00;95018.47;5063758;28;20536;-74
2023/01/15 01:33:35;;;;;;;1.57;1.33;;;;;;;5.03;100.00;95017.84;5064350;28;20786;-74
2023/01/15 01:36:02;;;;;;;2.50;1.70;;;;;;;5.12;100.00;95035.34;5070594;28;20537;-75
2023/01/15 01:38:28;;;;;;;2.23;2.10;;;;;;;5.14;100.00;95017.44;5057107;28;20799;-75
2023/01/15 01:40:55;;;;;;;1.47;1.37;;;;;;;5.16;100.00;95023.13;5046714;28;20849;-75
2023/01/15 01:43:25;;;;;;;1.70;1.57;;;;;;;5.15;100.00;95017.09;5047260;28;20513;-75
2023/01/15 01:45:53;;;;;;;2.43;1.40;;;;;;;5.09;100.00;95000.06;5041994;28;20582;-75
2023/01/15 01:48:25;;;;;;;4.37;1.93;;;;;;;5.29;100.00;95022.81;5062523;28;20429;-75
2023/01/15 01:50:56;;;;;;;1.97;1.13;;;;;;;5.51;100.00;95023.53;5071719;28;20940;-75
2023/01/15 01:53:26;;;;;;;1.70;1.60;;;;;;;5.29;100.00;94988.75;5069977;28;20440;-75
2023/01/15 01:55:55;;;;;;;1.13;1.00;;;;;;;5.36;100.00;94995.34;5062591;28;20548;-75
2023/01/15 01:58:25;;;;;;;1.50;1.23;;;;;;;5.36;100.00;94995.34;5065617;28;20445;-75
2023/01/15 02:00:52;;;;;;;1.57;1.47;;;;;;;5.48;100.00;95001.34;5062203;28;20444;-75
2023/01/15 02:03:24;;;;;;;3.97;1.80;;;;;;;5.33;100.00;94960.81;5056453;28;20444;-75
2023/01/15 02:05:55;;;;;;;1.13;1.03;;;;;;;5.68;100.00;95002.34;5054297;28;20456;-76
2023/01/15 02:08:22;;;;;;;2.50;1.07;;;;;;;5.49;100.00;94962.81;5069910;28;20431;-75
2023/01/15 02:10:52;;;;;;;4.73;1.30;;;;;;;5.76;100.00;94996.25;5071920;28;20428;-75
2023/01/15 02:13:39;;;;;;;1.77;1.13;;;;;;;5.64;100.00;94951.66;5059365;28;20626;-74
2023/01/15 02:16:06;;;;;;;2.07;1.10;;;;;;;5.83;100.00;94974.72;5050014;28;20471;-75
2023/01/15 02:18:46;;;;;;;2.27;1.03;;;;;;;5.62;100.00;94938.13;5059595;28;20493;-75
2023/01/15 02:21:52;;;;;;;2.00;0.97;;;;;;;5.89;100.00;94973.41;5041107;28;20464;-75
2023/01/15 02:24:35;;;;;;;1.83;1.40;;;;;;;5.91;100.00;94964.13;5065344;28;20465;-75
2023/01/15 02:27:08;;;;;;;1.30;1.20;;;;;;;5.98;100.00;94957.56;5063064;28;20455;-75
2023/01/15 02:30:08;;;;;;;1.03;0.90;;;;;;;6.05;100.00;94961.19;5057966;28;20436;-75
2023/01/15 02:32:52;;;;;;;1.00;0.90;;;;;;;6.04;100.00;94956.25;4987100;28;20482;-75
2023/01/15 02:35:26;;;;;;;1.20;1.10;;;;;;;5.83;100.00;94933.50;5064434;28;20505;-75
2023/01/15 02:37:56;;;;;;;1.67;1.20;;;;;;;5.90;100.00;94939.00;5071004;28;20460;-75
2023/01/15 02:40:26;;;;;;;2.20;1.40;;;;;;;5.91;100.00;94922.19;5055921;28;20451;-75
2023/01/15 02:42:55;;;;;;;1.00;0.90;;;;;;;5.82;100.00;94912.88;5042328;28;20846;-75
2023/01/15 02:45:30;;;;;;;1.30;1.20;;;;;;;5.90;100.00;94936.38;5062544;28;20464;-75
2023/01/15 02:48:07;;;;;;;0.80;0.73;;;;;;;6.11;100.00;94956.44;5062270;28;20917;-75
2023/01/15 02:50:38;;;;;;;0.97;0.87;;;;;;;6.07;100.00;94951.09;5040284;28;20444;-75
2023/01/15 02:53:11;;;;;;;1.00;0.80;;;;;;;5.91;100.00;94924.81;5051457;28;20486;-75
2023/01/15 02:55:43;;;;;;;1.10;0.90;;;;;;;6.15;100.00;94954.72;5058322;28;20466;-75
2023/01/15 02:58:16;;;;;;;0.80;0.80;;;;;;;6.01;100.00;94934.09;5055769;28;20492;-75
2023/01/15 03:00:48;;;;;;;2.90;0.93;;;;;;;6.04;100.00;94932.66;5042057;28;20527;-75
2023/01/15 03:03:20;;;;;;;1.57;0.70;;;;;;;6.18;100.00;94948.78;5067834;28;20433;-75
2023/01/15 03:06:03;;;;;;;2.33;0.90;;;;;;;6.15;100.00;94944.97;5080091;28;20562;-75
2023/01/15 03:08:30;;;;;;;1.47;1.13;;;;;;;6.07;100.00;94924.88;5040085;28;20436;-75
2023/01/15 03:11:15;;;;;;;0.70;0.70;;;;;;;6.20;100.00;94941.34;5052680;28;20716;-75
2023/01/15 03:13:59;;;;;;;3.80;1.00;;;;;;;6.15;100.00;94937.13;5079012;28;20936;-75
2023/01/15 03:16:37;;;;;;;1.70;1.10;;;;;;;6.18;100.00;94938.31;5063472;28;20499;-75
2023/01/15 03:19:20;;;;;;;0.90;0.90;;;;;;;6.15;100.00;94934.50;5047544;28;20435;-75
2023/01/15 03:21:57;;;;;;;1.80;1.13;;;;;;;6.09;100.00;94911.41;5069109;28;20464;-75
2023/01/15 03:24:32;;;;;;;0.83;0.83;;;;;;;5.99;100.00;94898.75;5072018;28;20431;-76
2023/01/15 03:27:00;;;;;;;0.80;0.80;;;;;;;5.98;100.00;94892.00;5072358;28;20452;-76
2023/01/15 03:29:35;;;;;;;1.03;0.90;;;;;;;6.21;100.00;94920.03;5095215;28;20450;-75
2023/01/15 03:32:01;;;;;;;6.30;0.90;;;;;;;6.01;100.00;94894.72;5076323;28;20436;-75
2023/01/15 03:34:36;;;;;;;1.00;0.90;;;;;;;6.20;100.00;94921.13;5061523;28;20433;-75
2023/01/15 03:37:04;;;;;;;1.07;0.97;;;;;;;6.03;100.00;94895.16;5062744;28;20479;-75
2023/01/15 03:39:32;;;;;;;1.10;1.00;;;;;;;6.14;100.00;94914.59;5058729;28;20486;-75
2023/01/15 03:42:20;;;;;;;0.90;0.80;;;;;;;6.21;100.00;94908.75;5055826;28;20869;-75
2023/01/15 03:44:53;;;;;;;1.10;1.00;;;;;;;6.23;100.00;94917.06;5057096;28;20433;-75
2023/01/15 03:47:33;;;;;;;1.10;1.00;;;;;;;6.04;100.00;94888.06;5068989;28;20452;-75
2023/01/15 03:50:18;;;;;;;0.70;0.70;;;;;;;6.14;100.00;94901.47;5067154;28;20432;-75
2023/01/15 03:53:10;;;;;;;0.80;0.80;;;;;;;6.15;100.00;94903.00;5062643;28;20420;-74
2023/01/15 03:55:48;;;;;;;0.90;0.80;;;;;;;6.16;100.00;94898.53;5046350;28;20517;-75
2023/01/15 03:58:28;;;;;;;1.00;0.90;;;;;;;6.11;100.00;94888.25;5074092;28;20459;-75
2023/01/15 04:00:59;;;;;;;2.50;0.80;;;;;;;6.14;100.00;94896.22;5062067;28;20413;-75
2023/01/15 04:03:29;;;;;;;1.00;0.80;;;;;;;5.98;100.00;94871.78;5055067;28;20952;-75
2023/01/15 04:05:59;;;;;;;1.87;0.80;;;;;;;5.92;100.00;94871.25;5065107;28;20458;-75
2023/01/15 04:08:30;;;;;;;1.00;0.80;;;;;;;6.16;100.00;94899.28;5072276;28;20467;-75
2023/01/15 04:10:58;;;;;;;1.67;1.00;;;;;;;6.21;100.00;94901.66;5073516;28;20514;-75
2023/01/15 04:13:29;;;;;;;2.03;0.87;;;;;;;5.98;100.00;94868.38;5064053;28;20429;-74
2023/01/15 04:15:57;;;;;;;0.90;0.90;;;;;;;6.19;100.00;94892.59;5065381;28;20467;-75
2023/01/15 04:18:25;;;;;;;1.00;0.90;;;;;;;6.09;100.00;94877.31;5060849;28;20551;-75
2023/01/15 04:20:53;;;;;;;0.80;0.80;;;;;;;6.16;100.00;94880.91;5042152;28;20457;-75
2023/01/15 04:23:21;;;;;;;1.63;1.20;;;;;;;5.84;100.00;94850.34;5083448;28;20529;-75
2023/01/15 04:25:47;;;;;;;2.00;1.10;;;;;;;6.03;100.00;94873.41;5073202;28;20813;-75
2023/01/15 04:28:14;;;;;;;1.00;0.80;;;;;;;5.96;100.00;94858.22;5083250;28;20439;-75
2023/01/15 04:30:42;;;;;;;1.00;0.93;;;;;;;6.08;100.00;94871.31;5073257;28;20482;-75
2023/01/15 04:33:09;;;;;;;1.20;1.10;;;;;;;5.91;100.00;94840.09;5082693;28;20837;-75
2023/01/15 04:35:37;;;;;;;3.53;0.90;;;;;;;6.06;100.00;94864.88;5071857;28;20448;-75
2023/01/15 04:38:04;;;;;;;1.33;0.77;;;;;;;5.96;100.00;94847.72;5073084;28;20595;-75
2023/01/15 04:46:01;;;;;;;0.80;0.80;;;;;;;5.92;100.00;94831.91;5061207;28;20967;-75
2023/01/15 04:48:28;;;;;;;0.97;0.80;;;;;;;6.16;100.00;94859.16;5041435;28;20937;-75
2023/01/15 04:51:02;;;;;;;2.90;0.97;;;;;;;6.07;100.00;94848.78;5054973;28;20523;-75
2023/01/15 04:53:28;;;;;;;1.03;0.90;;;;;;;6.04;100.00;94844.22;5071583;28;20812;-75
2023/01/15 04:56:00;;;;;;;3.83;1.30;;;;;;;5.84;100.00;94814.41;5062049;28;20463;-75
2023/01/15 04:58:28;;;;;;;1.50;1.10;;;;;;;5.83;100.00;94817.38;5069866;28;20506;-75
2023/01/15 05:00:55;;;;;;;0.90;0.90;;;;;;;6.12;100.00;94850.41;5071320;28;20869;-75
2023/01/15 05:03:24;;;;;;;1.37;1.27;;;;;;;6.00;100.00;94832.09;5056763;28;20830;-75
2023/01/15 05:05:51;;;;;;;2.50;1.20;;;;;;;6.01;100.00;94837.03;5083843;28;20545;-75
2023/01/15 05:08:17;;;;;;;1.70;1.10;;;;;;;5.91;100.00;94801.53;5056014;28;20546;-75
2023/01/15 05:10:44;;;;;;;2.23;1.00;;;;;;;6.15;100.00;94841.91;5058933;28;20487;-75
2023/01/15 05:13:11;;;;;;;2.33;1.40;;;;;;;5.97;100.00;94823.03;5066599;28;20464;-75
2023/01/15 05:15:39;;;;;;;2.17;1.20;;;;;;;5.89;100.00;94801.06;5047141;28;20456;-75
2023/01/15 05:18:06;;;;;;;5.50;1.77;;;;;;;5.97;100.00;94807.28;5070856;28;20460;-74
2023/01/15 05:20:36;;;;;;;1.20;1.10;;;;;;;5.84;100.00;94784.78;5057984;28;20436;-74
2023/01/15 05:23:02;;;;;;;1.53;1.43;;;;;;;5.89;100.00;94798.44;5050894;28;20448;-75
2023/01/15 05:25:29;;;;;;;1.20;1.10;;;;;;;5.84;100.00;94785.56;5064240;28;20980;-75
2023/01/15 05:27:56;;;;;;;1.30;1.20;;;;;;;5.97;100.00;94809.91;5072083;28;20443;-74
2023/01/15 05:30:22;;;;;;;1.20;1.10;;;;;;;5.92;100.00;94802.28;5070488;28;20994;-75
2023/01/15 05:32:49;;;;;;;1.27;1.00;;;;;;;5.48;100.00;94743.75;5070514;28;20455;-75
2023/01/15 05:35:16;;;;;;;1.47;1.10;;;;;;;5.88;100.00;94802.19;5071924;28;20448;-75
2023/01/15 05:37:42;;;;;;;1.40;0.80;;;;;;;5.75;100.00;94784.94;5047177;28;20952;-75
2023/01/15 05:40:10;;;;;;;1.60;1.37;;;;;;;5.72;100.00;94767.25;5063663;28;20457;-75
2023/01/15 05:42:36;;;;;;;1.80;1.00;;;;;;;5.52;100.00;94755.84;5057528;28;20468;-75
2023/01/15 05:45:03;;;;;;;1.40;1.30;;;;;;;5.75;100.00;94778.94;5071909;28;20578;-75
2023/01/15 05:47:30;;;;;;;4.63;1.50;;;;;;;5.71;100.00;94768.34;5071830;28;20426;-75
2023/01/15 05:49:56;;;;;;;1.23;1.13;;;;;;;5.93;100.00;94788.06;5076461;28;20431;-74
2023/01/15 05:52:23;;;;;;;1.93;1.20;;;;;;;5.87;100.00;94784.88;5067047;28;20815;-75
2023/01/15 05:54:49;;;;;;;1.50;1.00;;;;;;;5.53;100.00;94746.88;5069474;28;20531;-75
2023/01/15 05:57:16;;;;;;;1.30;1.20;;;;;;;5.82;100.00;94776.50;5057326;28;20468;-75
2023/01/15 05:59:43;;;;;;;1.53;1.10;;;;;;;5.76;100.00;94764.75;5040210;28;20444;-75
2023/01/15 06:02:09;;;;;;;1.17;1.07;;;;;;;5.99;100.00;94788.59;5063056;28;20968;-75
2023/01/15 06:04:36;;;;;;;1.20;1.10;;;;;;;5.80;100.00;94758.50;5058710;28;20425;-75
2023/01/15 06:07:04;;;;;;;1.10;1.00;;;;;;;5.87;100.00;94763.91;5081507;28;20474;-75
2023/01/15 06:09:30;;;;;;;1.10;0.90;;;;;;;6.00;100.00;94792.75;5067956;28;21027;-75
2023/01/15 06:11:57;;;;;;;1.13;1.00;;;;;;;5.87;100.00;94769.16;5061622;28;20519;-75
2023/01/15 06:14:24;;;;;;;1.40;0.90;;;;;;;6.04;100.00;94791.00;5053432;28;20428;-75
2023/01/15 06:16:50;;;;;;;1.13;1.00;;;;;;;5.99;100.00;94786.72;5052788;28;20454;-75
2023/01/15 06:19:17;;;;;;;2.13;1.27;;;;;;;5.98;100.00;94779.19;5070976;28;20916;-75
2023/01/15 06:21:44;;;;;;;1.30;1.07;;;;;;;5.73;100.00;94754.91;5072126;28;20444;-75
2023/01/15 06:24:11;;;;;;;1.77;1.10;;;;;;;5.88;100.00;94772.56;5065437;28;20430;-75
2023/01/15 06:26:38;;;;;;;1.67;1.30;;;;;;;5.78;100.00;94768.56;5071039;28;20458;-75
2023/01/15 06:29:05;;;;;;;1.50;1.40;;;;;;;5.81;100.00;94774.97;5069598;28;20779;-75
2023/01/15 06:31:32;;;;;;;1.90;1.80;;;;;;;5.62;100.00;94744.91;5071007;28;20424;-75
2023/01/15 06:33:59;;;;;;;1.83;1.40;;;;;;;5.85;100.00;94781.84;5056085;28;20528;-75
2023/01/15 06:36:26;;;;;;;2.10;1.10;;;;;;;5.87;100.00;94782.25;5060242;28;20457;-75
2023/01/15 06:38:53;;;;;;;1.60;1.50;;;;;;;5.61;100.00;94737.38;5062537;28;20801;-75
2023/01/15 06:49:47;;;;;;;1.50;1.40;;;;;;;5.84;100.00;94777.69;5069312;28;20478;-75
2023/01/15 06:52:13;;;;;;;1.07;0.93;;;;;;;5.75;100.00;94766.59;5053000;28;20467;-75
2023/01/15 06:54:40;;;;;;;1.03;0.87;;;;;;;5.82;100.00;94771.25;5049293;28;20968;-75
2023/01/15 06:57:07;;;;;;;1.03;0.90;;;;;;;5.74;100.00;94753.78;5045902;28;20985;-75
2023/01/15 06:59:33;;;;;;;2.80;1.10;;;;;;;5.70;100.00;94752.94;5062653;28;20531;-75
2023/01/15 07:02:00;;;;;;;0.80;0.80;;;;;;;5.78;100.00;94762.53;5069202;28;20523;-75
2023/01/15 07:04:29;;;;;;;0.93;0.83;;;;;;;5.88;100.00;94772.56;5087050;28;20444;-74
2023/01/15 07:06:56;;;;;;;2.07;1.20;;;;;;;5.84;100.00;94761.97;5081709;28;20509;-75
2023/01/15 07:09:23;;;;;;;3.00;1.10;;;;;;;5.61;100.00;94734.75;5068111;28;20964;-75
2023/01/15 07:11:49;;;;;;;1.43;1.17;;;;;;;5.68;100.00;94752.53;5058237;28;20522;-75
2023/01/15 07:14:26;;;;;;;1.67;1.50;;;;;;;5.86;100.00;94761.63;5070456;28;20460;-75
2023/01/15 07:16:54;;;;;;;2.60;1.53;;;;;;;5.67;100.00;94745.75;5061295;28;20441;-75
2023/01/15 07:19:21;;;;;;;2.50;1.60;;;;;;;5.83;100.00;94765.69;5051573;28;20952;-75
2023/01/15 07:21:47;;;;;;;1.33;1.23;;;;;;;5.76;100.00;94755.00;5052413;28;20534;-75
2023/01/15 07:24:15;;;;;;;1.03;0.93;;;;;;;5.88;100.00;94767.31;5072735;28;20433;-75
2023/01/15 07:26:44;;;;;;;2.10;1.13;;;;;;;6.10;100.00;94813.25;5079360;28;20460;-75
2023/01/15 07:29:11;;;;;;;1.10;1.00;;;;;;;5.56;100.00;94732.34;5073842;28;20523;-75
2023/01/15 07:31:39;;;;;;;1.20;1.10;;;;;;;5.90;100.00;94786.91;5073107;28;20942;-75
2023/01/15 07:34:06;;;;;;;1.57;1.30;;;;;;;6.17;100.00;94823.94;5072906;28;20816;-75
2023/01/15 07:36:33;;;;;;;2.70;1.70;;;;;;;5.71;100.00;94762.34;5072804;28;20505;-75
2023/01/15 07:39:03;;;;;;;1.10;0.93;;;;;;;6.06;100.00;94809.78;5072744;28;20452;-75
2023/01/15 07:49:49;;;;;;;1.27;1.17;;;;;;;6.02;100.00;94837.78;5060025;28;20439;-75
2023/01/15 07:52:18;;;;;;;1.53;1.30;;;;;;;6.08;100.00;94857.44;5052598;28;20931;-74
2023/01/15 07:54:46;;;;;;;2.60;2.20;;;;;;;6.12;100.00;94855.66;5066270;28;20817;-75
2023/01/15 07:57:15;;;;;;;1.50;1.40;;;;;;;6.00;100.00;94829.47;5066357;28;20428;-75
2023/01/15 07:59:42;;;;;;;1.80;1.30;;;;;;;5.72;100.00;94817.06;5067234;28;20432;-74
2023/01/15 08:02:09;;;;;;;1.93;1.40;;;;;;;5.86;100.00;94832.44;5074055;28;20997;-74
2023/01/15 08:04:35;;;;;;;1.80;1.20;;;;;;;5.60;100.00;94812.59;5072688;28;20439;-75
2023/01/15 08:07:03;;;;;;;1.50;1.40;;;;;;;5.85;100.00;94834.28;5055781;28;20448;-75
2023/01/15 08:09:30;;;;;;;4.50;1.37;;;;;;;5.81;100.00;94848.41;5072451;28;20508;-75
2023/01/15 08:17:32;;;;;;;4.70;4.23;;;;;;;6.01;100.00;94825.75;5072004;28;20467;-75
2023/01/15 08:20:00;;;;;;;5.03;4.63;;;;;;;5.70;100.00;94811.38;5072121;28;20432;-75
2023/01/15 08:22:26;;;;;;;3.83;3.40;;;;;;;5.93;100.00;94825.56;5060535;28;20466;-75
2023/01/15 08:24:53;;;;;;;1.87;1.77;;;;;;;6.17;100.00;94847.56;5055559;28;20446;-75
2023/01/15 08:27:19;;;;;;;1.30;1.20;;;;;;;5.78;100.00;94801.88;5070470;28;20528;-75
2023/01/15 08:29:46;;;;;;;1.20;1.10;;;;;;;5.52;100.00;94846.81;5060553;28;20443;-75
2023/01/15 08:32:13;;;;;;;1.87;1.60;;;;;;;5.54;100.00;94895.19;5060141;28;20451;-75
2023/01/15 08:34:39;;;;;;;1.97;1.60;;;;;;;5.02;100.00;94868.88;5071990;28;20490;-75
2023/01/15 08:37:06;;;;;;;7.70;6.13;;;;;;;4.99;100.00;94878.16;5076676;28;20967;-75
2023/01/15 08:39:33;;;;;;;4.27;3.90;;;;;;;4.98;100.00;94876.63;5064268;28;20500;-75
2023/01/15 08:42:00;;;;;;;20.70;16.67;;;;;;;4.89;100.00;94894.28;5067342;28;20535;-76
2023/01/15 08:44:26;;;;;;;0.80;0.80;;;;;;;4.63;100.00;94897.16;5071713;28;20438;-75
2023/01/15 08:46:53;;;;;;;8.17;5.97;;;;;;;4.59;100.00;94898.91;5069211;28;20468;-75
2023/01/15 08:49:20;;;;;;;0.80;0.80;;;;;;;4.06;100.00;94886.59;5062347;28;20542;-75
2023/01/15 08:51:50;;;;;;;1.10;0.90;;;;;;;3.82;100.00;94915.97;5069231;28;20524;-75
2023/01/15 08:54:19;;;;;;;1.00;0.87;;;;;;;3.33;100.00;94904.41;5061786;28;20490;-74
2023/01/15 08:56:46;;;;;;;0.73;0.73;;;;;;;3.28;100.00;94910.59;5041642;28;20452;-75
2023/01/15 08:59:13;;;;;;;4.03;3.63;;;;;;;3.33;100.00;94938.34;5064154;28;20909;-75
2023/01/15 09:01:40;;;;;;;0.80;0.70;;;;;;;3.13;100.00;94930.16;5055099;28;20439;-75
2023/01/15 09:04:12;;;;;;;5.17;4.83;;;;;;;3.21;100.00;94931.22;5070053;28;20431;-74
2023/01/15 09:06:38;;;;;;;1.00;0.90;;;;;;;3.18;100.00;94931.81;5050941;28;20493;-75
2023/01/15 09:09:05;;;;;;;5.90;5.50;;;;;;;3.22;100.00;94940.56;5051933;28;20524;-75
2023/01/15 09:11:32;;;;;;;1.60;1.50;;;;;;;3.11;100.00;94932.31;5073268;28;20425;-75
2023/01/15 09:13:59;;;;;;;1.50;1.40;;;;;;;3.30;100.00;94973.69;5070706;28;20445;-75
2023/01/15 09:16:26;;;;;;;1.20;1.10;;;;;;;3.12;100.00;94952.13;5074218;28;20459;-78
2023/01/15 09:18:53;;;;;;;2.37;2.20;;;;;;;3.15;100.00;94948.09;5091232;28;20456;-77
2023/01/15 09:21:20;;;;;;;1.20;1.10;;;;;;;3.22;100.00;94956.25;5067292;28;20794;-75
2023/01/15 09:23:46;;;;;;;0.93;0.83;;;;;;;3.41;100.00;94990.56;5055516;28;20549;-75
2023/01/15 09:26:24;;;;;;;1.20;1.10;;;;;;;3.51;100.00;95008.53;5071674;28;20879;-74
2023/01/15 09:28:51;;;;;;;1.30;1.20;;;;;;;3.32;100.00;94968.94;5041758;28;20435;-75
2023/01/15 09:31:17;;;;;;;1.60;1.50;;;;;;;3.20;100.00;94974.03;5063243;28;20516;-75
2023/01/15 09:33:44;;;;;;;0.90;0.90;;;;;;;3.03;100.00;94974.09;5047906;28;20850;-75
2023/01/15 09:36:16;;;;;;;1.20;1.10;;;;;;;3.32;100.00;95023.78;5042565;28;20452;-75
2023/01/15 09:38:43;;;;;;;1.53;1.00;;;;;;;3.39;100.00;95005.78;5057318;28;21036;-75
2023/01/15 09:42:04;;;;;;;1.03;0.93;;;;;;;3.38;100.00;95027.00;5070495;28;20440;-75
2023/01/15 09:44:40;;;;;;;0.70;0.70;;;;;;;3.25;100.00;95029.50;5066168;28;20478;-74
2023/01/15 09:47:15;;;;;;;1.63;0.80;;;;;;;3.14;100.00;95033.50;5065265;28;20849;-74
2023/01/15 09:49:50;;;;;;;1.13;0.80;;;;;;;3.01;100.00;95036.28;5064468;28;20450;-74
2023/01/15 09:52:54;;;;;;;1.23;1.00;;;;;;;3.04;100.00;95040.88;5058934;28;20423;-74
2023/01/15 09:55:43;;;;;;;0.83;0.80;;;;;;;2.99;100.00;95033.22;5040769;28;20852;-75
2023/01/15 09:58:12;;;;;;;0.80;0.80;;;;;;;3.14;100.00;95046.56;5014772;28;20905;-75
2023/01/15 10:00:46;;;;;;;1.53;1.23;;;;;;;3.25;100.00;95047.00;5023626;28;20591;-75
2023/01/15 10:03:39;;;;;;;1.30;1.20;;;;;;;3.23;100.00;95057.00;5026252;28;20487;-75
2023/01/15 10:06:14;;;;;;;1.30;1.00;;;;;;;3.01;100.00;95041.50;5056237;28;20488;-75
2023/01/15 10:08:49;;;;;;;2.33;1.33;;;;;;;3.18;100.00;95062.38;5038557;28;20425;-75
2023/01/15 10:11:18;;;;;;;1.20;1.10;;;;;;;3.11;100.00;95056.88;5019461;28;20440;-74
2023/01/15 10:14:05;;;;;;;1.20;1.10;;;;;;;3.09;100.00;95059.03;5022538;28;20434;-74
2023/01/15 10:16:35;;;;;;;1.20;1.10;;;;;;;3.07;100.00;95059.34;5025912;28;21057;-74
2023/01/15 10:19:02;;;;;;;1.50;1.40;;;;;;;3.20;100.00;95068.81;5013279;28;20462;-75
2023/01/15 10:22:03;;;;;;;1.00;0.90;;;;;;;3.08;100.00;95047.03;5032465;28;20449;-74
2023/01/15 10:24:50;;;;;;;1.50;1.40;;;;;;;3.20;100.00;95078.50;5032694;28;20511;-74
2023/01/15 10:27:23;;;;;;;1.07;0.90;;;;;;;3.04;100.00;95044.25;5035760;28;20423;-74
2023/01/15 10:30:05;;;;;;;1.30;1.20;;;;;;;3.33;100.00;95074.94;5023567;28;20440;-74
2023/01/15 10:32:57;;;;;;;1.17;1.07;;;;;;;3.32;100.00;95078.63;5047067;28;20463;-74
2023/01/15 10:35:48;;;;;;;1.40;1.30;;;;;;;3.21;100.00;95059.16;5043623;28;20460;-74
2023/01/15 10:38:21;;;;;;;1.20;1.00;;;;;;;3.23;100.00;95057.00;5061465;28;20459;-74
2023/01/15 10:40:51;;;;;;;1.10;0.87;;;;;;;3.29;100.00;95081.88;5070017;28;20436;-74
2023/01/15 10:43:46;;;;;;;1.20;0.90;;;;;;;3.22;100.00;95077.13;5070101;28;20439;-74
2023/01/15 10:46:19;;;;;;;1.10;1.00;;;;;;;3.12;100.00;95081.91;5068200;28;20570;-74
2023/01/15 10:49:16;;;;;;;1.37;0.80;;;;;;;3.00;100.00;95079.13;5069821;28;20433;-74
2023/01/15 10:51:54;;;;;;;1.27;1.17;;;;;;;3.12;100.00;95108.00;5063679;28;20472;-74
2023/01/15 10:54:34;;;;;;;1.17;1.07;;;;;;;3.10;100.00;95126.59;5059850;28;20467;-74
2023/01/15 10:57:11;;;;;;;1.30;1.20;;;;;;;3.03;100.00;95133.34;5070210;28;20465;-75
2023/01/15 10:59:55;;;;;;;1.00;0.90;;;;;;;2.94;100.00;95130.75;5070493;28;20854;-75
2023/01/15 11:02:29;;;;;;;0.87;0.87;;;;;;;2.91;100.00;95100.00;5042897;28;20944;-76
2023/01/15 11:04:55;;;;;;;0.77;0.70;;;;;;;2.95;100.00;95147.94;5074481;28;20556;-76
2023/01/15 11:07:29;;;;;;;1.00;1.00;;;;;;;2.91;100.00;95116.44;5058586;28;20976;-76
2023/01/15 11:10:01;;;;;;;0.90;0.90;;;;;;;3.09;100.00;95132.91;5069019;28;20439;-76
2023/01/15 11:21:10;;;;;;;2.40;0.90;;;;;;;3.12;100.00;95144.56;5067213;28;20433;-75
2023/01/15 11:23:37;;;;;;;1.10;0.90;;;;;;;2.94;100.00;95126.28;5061053;28;20471;-76
2023/01/15 11:26:05;;;;;;;0.80;0.70;;;;;;;3.12;100.00;95119.22;5052827;28;20460;-76
2023/01/15 11:28:42;;;;;;;1.17;0.90;;;;;;;3.50;100.00;95168.97;5069595;28;21033;-75
2023/01/15 11:31:10;;;;;;;0.70;0.70;;;;;;;3.51;100.00;95173.13;5070730;28;20423;-75
2023/01/15 11:33:37;;;;;;;1.97;0.93;;;;;;;3.28;100.00;95150.84;5069402;28;20936;-75
2023/01/15 11:36:17;;;;;;;0.70;0.70;;;;;;;3.38;100.00;95181.88;5052737;28;20559;-75
2023/01/15 11:38:47;;;;;;;0.80;0.73;;;;;;;3.14;100.00;95176.34;5064470;28;20466;-75
2023/01/15 11:50:42;;;;;;;0.77;0.70;;;;;;;3.42;100.00;95177.56;5069594;28;20436;-75
2023/01/15 11:52:56;;;;;;;0.90;0.90;;;;;;;3.32;100.00;95183.09;5058939;28;20946;-76
2023/01/15 11:55:25;;;;;;;0.80;0.80;;;;;;;3.38;100.00;95189.72;5055939;28;20448;-75
2023/01/15 11:57:54;;;;;;;0.70;0.70;;;;;;;3.36;100.00;95207.56;5056821;28;20425;-75
2023/01/15 12:00:20;;;;;;;0.70;0.70;;;;;;;3.27;100.00;95217.22;5062584;28;20825;-75
2023/01/15 12:02:49;;;;;;;1.97;1.60;;;;;;;3.13;100.00;95201.69;5062457;28;20815;-75
2023/01/15 12:05:29;;;;;;;0.60;0.60;;;;;;;3.10;100.00;95232.88;5057437;28;20460;-75
2023/01/15 12:08:00;;;;;;;0.70;0.70;;;;;;;3.17;100.00;95205.22;5067909;28;20448;-75
2023/01/15 12:11:03;;;;;;;2.10;1.30;;;;;;;3.24;100.00;95207.38;5059544;28;20420;-75
2023/01/15 12:14:03;;;;;;;0.90;0.87;;;;;;;3.18;100.00;95216.44;5075209;28;20441;-75
2023/01/15 12:16:46;;;;;;;1.20;1.10;;;;;;;3.05;100.00;95171.13;5072759;28;20456;-75
2023/01/15 12:19:29;;;;;;;0.70;0.70;;;;;;;3.00;100.00;95157.44;5074067;28;20816;-75
2023/01/15 12:22:31;;;;;;;0.90;0.90;;;;;;;3.25;100.00;95191.41;5073961;28;20453;-76
2023/01/15 12:25:30;;;;;;;1.10;1.00;;;;;;;2.73;100.00;95112.28;5045117;28;20435;-75
2023/01/15 12:28:29;;;;;;;0.90;0.90;;;;;;;3.12;100.00;95186.34;5059803;28;20432;-75
2023/01/15 12:31:15;;;;;;;2.63;2.23;;;;;;;3.12;100.00;95191.56;5072516;28;20424;-75
2023/01/15 12:33:42;;;;;;;1.27;1.17;;;;;;;3.10;100.00;95202.31;5072613;28;20454;-75
2023/01/15 12:36:13;;;;;;;1.20;1.10;;;;;;;2.99;100.00;95218.56;5072350;28;20555;-75
2023/01/15 12:38:43;;;;;;;1.17;1.07;;;;;;;2.94;100.00;95217.66;5042374;28;20548;-75
2023/01/15 12:41:13;;;;;;;1.20;1.10;;;;;;;2.78;100.00;95194.88;5072456;28;20487;-75
2023/01/15 12:46:33;;;;;;;2.20;2.00;;;;;;;2.77;100.00;95199.31;5072179;28;20484;-75
2023/01/15 12:49:17;;;;;;;1.37;1.27;;;;;;;2.95;100.00;95240.06;5072149;28;20463;-75